Aeroporto :
LOGIN :

Iscrizione | Disclaimer

   EN    FR    IT 

 










Sommario :    VFR   VFR Marginale   IFR   IFR Intensivo   IFR Molto Intensivo
Visibilità : 
Base nubi : 
>= 8 km
>= 3000ft
5 / 8 km
1000 / 3000 ft
1500m / 5 km
500 / 1000 ft
800 / 1500m
200 / 500 ft
< 800m
< 200 ft
Simboli :   Temporali  Nebbia  Neve Forte  Precipitazioni Forti  Vento > 20 kt
SIGMETs :   Varie  Temporali  Ghiacco  Turbolenza  Onda orograficha  Ceneri Vulcaniche






- Altitudine del aeroporto : 526 ft
- Codice IATA : LTN


EGGW - London Luton

ULTIMO METAR :
  • 240620Z AUTO 17008KT 2500 DZ OVC002 05/05 Q1011

METARs OBSOLETI :
  • 240550Z AUTO 16011KT 4600 BR OVC002 05/05 Q1013
  • 240520Z AUTO 15013KT 4100 -RADZ OVC002 05/04 Q1014 REDZ
  • 240450Z AUTO 15012KT 3500 -DZ OVC002 04/04 Q1015
  • 240420Z AUTO 15010KT 4200 -DZ OVC003 04/04 Q1016
  • 240350Z AUTO 15009KT 3700 -DZ BKN004 BKN016 OVC020 04/03 Q1017

TAF TAF EGGW
Valido dal 24 a 06 ore il 25 a 06 ore UTC


240509Z 2406/2506 17010KT 9999 FEW025
BECMG 2406/2409 23020G32KT
TEMPO 2406/2409 3000 RADZ BR BKN004
PROB40
TEMPO 2406/2408 1400 +RADZ BKN001
TEMPO 2409/2416 4000 RA BKN008
BECMG 2418/2421 26015KT
PROB40
TEMPO 2421/2506 28015G25KT
ATIS : +44 1582 395 204



MetMap, La meteo Aeronautica in un colpo d'occhio ! - Copyright ORBIFLY Dicembre 2007 - Disclaimer

ORBIFLY MET'MAP TEAM :

Programmazione e sviluppo : Alexandra Zaïnal
Concezione : Baudouin d'Aumeries
Aiuto per la programmazione : Marc-Olivier Méhu
Supporto tecnico e logistico : Manuel Goepfert
Aiuto per la traduzione : Arnaldo La Scala

Contatto : metmap@orbifly.com




FONTI E CREDITI :

   NOAA